sensor_id;sensor_type;location;lat;lon;timestamp;P1;durP1;ratioP1;P2;durP2;ratioP2
41815;SDS011;27814;53.452;-6.180;2022-07-05T00:02:00;4.32;;;0.93;;
41815;SDS011;27814;53.452;-6.180;2022-07-05T00:04:29;4.57;;;1.08;;
41815;SDS011;27814;53.452;-6.180;2022-07-05T00:06:57;4.32;;;1.00;;
41815;SDS011;27814;53.452;-6.180;2022-07-05T00:09:43;4.75;;;0.90;;
41815;SDS011;27814;53.452;-6.180;2022-07-05T00:12:12;5.88;;;1.10;;
41815;SDS011;27814;53.452;-6.180;2022-07-05T00:14:41;3.22;;;0.90;;
41815;SDS011;27814;53.452;-6.180;2022-07-05T00:17:11;5.25;;;1.05;;
41815;SDS011;27814;53.452;-6.180;2022-07-05T00:19:40;3.83;;;0.90;;
41815;SDS011;27814;53.452;-6.180;2022-07-05T00:22:09;4.63;;;1.30;;
41815;SDS011;27814;53.452;-6.180;2022-07-05T00:24:37;7.45;;;1.20;;
41815;SDS011;27814;53.452;-6.180;2022-07-05T00:27:06;3.90;;;1.07;;
41815;SDS011;27814;53.452;-6.180;2022-07-05T00:29:36;9.00;;;1.65;;
41815;SDS011;27814;53.452;-6.180;2022-07-05T00:32:05;5.45;;;1.08;;
41815;SDS011;27814;53.452;-6.180;2022-07-05T00:34:33;5.53;;;1.10;;
41815;SDS011;27814;53.452;-6.180;2022-07-05T00:37:02;5.80;;;1.25;;
41815;SDS011;27814;53.452;-6.180;2022-07-05T00:39:30;3.70;;;0.90;;
41815;SDS011;27814;53.452;-6.180;2022-07-05T00:41:58;3.83;;;1.02;;
41815;SDS011;27814;53.452;-6.180;2022-07-05T00:44:28;6.60;;;1.15;;
41815;SDS011;27814;53.452;-6.180;2022-07-05T00:47:00;6.45;;;1.20;;
41815;SDS011;27814;53.452;-6.180;2022-07-05T00:49:29;5.25;;;1.25;;
41815;SDS011;27814;53.452;-6.180;2022-07-05T00:51:58;5.80;;;1.00;;
41815;SDS011;27814;53.452;-6.180;2022-07-05T00:54:46;6.57;;;1.10;;
41815;SDS011;27814;53.452;-6.180;2022-07-05T00:57:15;5.18;;;1.20;;
41815;SDS011;27814;53.452;-6.180;2022-07-05T00:59:44;7.70;;;1.10;;
41815;SDS011;27814;53.452;-6.180;2022-07-05T01:02:14;7.40;;;1.60;;
41815;SDS011;27814;53.452;-6.180;2022-07-05T01:04:45;5.07;;;1.13;;
41815;SDS011;27814;53.452;-6.180;2022-07-05T01:07:16;6.25;;;1.50;;
41815;SDS011;27814;53.452;-6.180;2022-07-05T01:09:46;7.28;;;1.15;;
41815;SDS011;27814;53.452;-6.180;2022-07-05T01:12:15;7.82;;;1.27;;
41815;SDS011;27814;53.452;-6.180;2022-07-05T01:14:44;8.00;;;1.30;;
41815;SDS011;27814;53.452;-6.180;2022-07-05T01:17:15;6.53;;;1.13;;
41815;SDS011;27814;53.452;-6.180;2022-07-05T01:19:44;4.60;;;1.10;;
41815;SDS011;27814;53.452;-6.180;2022-07-05T01:22:15;5.60;;;0.90;;
41815;SDS011;27814;53.452;-6.180;2022-07-05T01:24:47;3.95;;;0.93;;
41815;SDS011;27814;53.452;-6.180;2022-07-05T01:27:17;5.88;;;1.08;;
41815;SDS011;27814;53.452;-6.180;2022-07-05T01:29:46;7.68;;;1.13;;
41815;SDS011;27814;53.452;-6.180;2022-07-05T01:32:14;6.28;;;1.30;;
41815;SDS011;27814;53.452;-6.180;2022-07-05T01:34:43;5.85;;;1.33;;
41815;SDS011;27814;53.452;-6.180;2022-07-05T01:37:12;5.22;;;1.30;;
41815;SDS011;27814;53.452;-6.180;2022-07-05T01:39:40;4.20;;;1.07;;
41815;SDS011;27814;53.452;-6.180;2022-07-05T01:42:10;3.83;;;1.23;;
41815;SDS011;27814;53.452;-6.180;2022-07-05T01:44:39;4.97;;;1.10;;
41815;SDS011;27814;53.452;-6.180;2022-07-05T01:47:08;3.05;;;1.10;;
41815;SDS011;27814;53.452;-6.180;2022-07-05T01:49:39;5.70;;;1.20;;
41815;SDS011;27814;53.452;-6.180;2022-07-05T01:52:11;5.50;;;1.20;;
41815;SDS011;27814;53.452;-6.180;2022-07-05T01:54:40;5.82;;;1.00;;
41815;SDS011;27814;53.452;-6.180;2022-07-05T01:57:11;8.40;;;1.33;;
41815;SDS011;27814;53.452;-6.180;2022-07-05T01:59:40;9.93;;;1.80;;
41815;SDS011;27814;53.452;-6.180;2022-07-05T02:02:08;5.25;;;0.98;;
41815;SDS011;27814;53.452;-6.180;2022-07-05T02:04:37;4.57;;;1.02;;
41815;SDS011;27814;53.452;-6.180;2022-07-05T02:07:07;6.55;;;1.40;;
41815;SDS011;27814;53.452;-6.180;2022-07-05T02:09:36;7.32;;;1.50;;
41815;SDS011;27814;53.452;-6.180;2022-07-05T02:12:05;5.75;;;1.05;;
41815;SDS011;27814;53.452;-6.180;2022-07-05T02:14:35;5.82;;;1.63;;
41815;SDS011;27814;53.452;-6.180;2022-07-05T02:17:03;7.55;;;1.60;;
41815;SDS011;27814;53.452;-6.180;2022-07-05T02:19:32;8.63;;;1.40;;
41815;SDS011;27814;53.452;-6.180;2022-07-05T02:22:02;4.50;;;1.10;;
41815;SDS011;27814;53.452;-6.180;2022-07-05T02:24:30;6.95;;;1.65;;
41815;SDS011;27814;53.452;-6.180;2022-07-05T02:26:59;6.00;;;1.02;;
41815;SDS011;27814;53.452;-6.180;2022-07-05T02:29:28;4.97;;;1.10;;
41815;SDS011;27814;53.452;-6.180;2022-07-05T02:31:57;6.75;;;1.50;;
41815;SDS011;27814;53.452;-6.180;2022-07-05T02:34:26;4.65;;;1.30;;
41815;SDS011;27814;53.452;-6.180;2022-07-05T02:36:54;6.35;;;1.25;;
41815;SDS011;27814;53.452;-6.180;2022-07-05T02:39:22;7.73;;;1.53;;
41815;SDS011;27814;53.452;-6.180;2022-07-05T02:41:51;5.38;;;1.42;;
41815;SDS011;27814;53.452;-6.180;2022-07-05T02:44:19;8.45;;;1.60;;
41815;SDS011;27814;53.452;-6.180;2022-07-05T02:46:47;7.88;;;1.85;;
41815;SDS011;27814;53.452;-6.180;2022-07-05T02:49:17;8.45;;;2.00;;
41815;SDS011;27814;53.452;-6.180;2022-07-05T02:51:46;8.50;;;1.88;;
41815;SDS011;27814;53.452;-6.180;2022-07-05T02:54:14;6.47;;;1.90;;
41815;SDS011;27814;53.452;-6.180;2022-07-05T02:56:42;7.03;;;2.10;;
41815;SDS011;27814;53.452;-6.180;2022-07-05T02:59:10;7.00;;;2.35;;
41815;SDS011;27814;53.452;-6.180;2022-07-05T03:01:39;10.35;;;2.65;;
41815;SDS011;27814;53.452;-6.180;2022-07-05T03:04:07;6.82;;;2.22;;
41815;SDS011;27814;53.452;-6.180;2022-07-05T03:06:38;8.65;;;2.80;;
41815;SDS011;27814;53.452;-6.180;2022-07-05T03:09:06;8.57;;;2.53;;
41815;SDS011;27814;53.452;-6.180;2022-07-05T03:11:34;7.93;;;2.38;;
41815;SDS011;27814;53.452;-6.180;2022-07-05T03:14:03;5.20;;;2.40;;
41815;SDS011;27814;53.452;-6.180;2022-07-05T03:16:31;7.07;;;2.55;;
41815;SDS011;27814;53.452;-6.180;2022-07-05T03:19:00;7.20;;;2.50;;
41815;SDS011;27814;53.452;-6.180;2022-07-05T03:21:28;7.25;;;2.50;;
41815;SDS011;27814;53.452;-6.180;2022-07-05T03:23:58;7.75;;;2.97;;
41815;SDS011;27814;53.452;-6.180;2022-07-05T03:26:26;8.45;;;3.30;;
41815;SDS011;27814;53.452;-6.180;2022-07-05T03:28:54;8.18;;;2.72;;
41815;SDS011;27814;53.452;-6.180;2022-07-05T03:31:23;6.50;;;2.50;;
41815;SDS011;27814;53.452;-6.180;2022-07-05T03:33:51;8.07;;;2.58;;
41815;SDS011;27814;53.452;-6.180;2022-07-05T03:36:19;6.80;;;2.30;;
41815;SDS011;27814;53.452;-6.180;2022-07-05T03:38:48;6.37;;;2.10;;
41815;SDS011;27814;53.452;-6.180;2022-07-05T03:41:18;4.60;;;2.17;;
41815;SDS011;27814;53.452;-6.180;2022-07-05T03:43:46;6.88;;;2.47;;
41815;SDS011;27814;53.452;-6.180;2022-07-05T03:46:14;6.80;;;2.10;;
41815;SDS011;27814;53.452;-6.180;2022-07-05T03:48:43;4.28;;;1.80;;
41815;SDS011;27814;53.452;-6.180;2022-07-05T03:51:11;6.32;;;2.20;;
41815;SDS011;27814;53.452;-6.180;2022-07-05T03:53:40;6.00;;;2.05;;
41815;SDS011;27814;53.452;-6.180;2022-07-05T03:56:08;6.53;;;2.63;;
41815;SDS011;27814;53.452;-6.180;2022-07-05T03:58:39;6.10;;;2.05;;
41815;SDS011;27814;53.452;-6.180;2022-07-05T04:01:07;7.38;;;2.22;;
41815;SDS011;27814;53.452;-6.180;2022-07-05T04:03:36;6.40;;;3.20;;
41815;SDS011;27814;53.452;-6.180;2022-07-05T04:06:07;5.73;;;2.10;;
41815;SDS011;27814;53.452;-6.180;2022-07-05T04:08:36;5.40;;;2.20;;
41815;SDS011;27814;53.452;-6.180;2022-07-05T04:11:05;5.63;;;1.95;;
41815;SDS011;27814;53.452;-6.180;2022-07-05T04:13:34;5.60;;;2.00;;
41815;SDS011;27814;53.452;-6.180;2022-07-05T04:16:05;5.00;;;2.13;;
41815;SDS011;27814;53.452;-6.180;2022-07-05T04:18:34;4.20;;;1.80;;
41815;SDS011;27814;53.452;-6.180;2022-07-05T04:21:02;4.32;;;1.80;;
41815;SDS011;27814;53.452;-6.180;2022-07-05T04:23:31;4.63;;;1.87;;
41815;SDS011;27814;53.452;-6.180;2022-07-05T04:26:00;4.85;;;1.98;;
41815;SDS011;27814;53.452;-6.180;2022-07-05T04:28:29;5.28;;;2.05;;
41815;SDS011;27814;53.452;-6.180;2022-07-05T04:30:57;3.30;;;1.70;;
41815;SDS011;27814;53.452;-6.180;2022-07-05T04:33:27;3.60;;;1.70;;
41815;SDS011;27814;53.452;-6.180;2022-07-05T04:35:55;3.93;;;1.80;;
41815;SDS011;27814;53.452;-6.180;2022-07-05T04:38:23;5.43;;;2.10;;
41815;SDS011;27814;53.452;-6.180;2022-07-05T04:40:52;4.53;;;1.63;;
41815;SDS011;27814;53.452;-6.180;2022-07-05T04:43:20;4.57;;;1.63;;
41815;SDS011;27814;53.452;-6.180;2022-07-05T04:45:49;3.78;;;1.48;;
41815;SDS011;27814;53.452;-6.180;2022-07-05T04:48:22;2.70;;;1.55;;
41815;SDS011;27814;53.452;-6.180;2022-07-05T04:50:51;3.30;;;1.60;;
41815;SDS011;27814;53.452;-6.180;2022-07-05T04:53:20;3.60;;;1.60;;
41815;SDS011;27814;53.452;-6.180;2022-07-05T04:55:48;4.57;;;1.40;;
41815;SDS011;27814;53.452;-6.180;2022-07-05T04:58:16;3.00;;;1.40;;
41815;SDS011;27814;53.452;-6.180;2022-07-05T05:00:45;3.13;;;1.33;;
41815;SDS011;27814;53.452;-6.180;2022-07-05T05:03:13;3.53;;;1.38;;
41815;SDS011;27814;53.452;-6.180;2022-07-05T05:05:42;2.00;;;1.00;;
41815;SDS011;27814;53.452;-6.180;2022-07-05T05:08:11;2.67;;;1.00;;
41815;SDS011;27814;53.452;-6.180;2022-07-05T05:10:40;1.60;;;0.90;;
41815;SDS011;27814;53.452;-6.180;2022-07-05T05:13:08;2.57;;;0.80;;
41815;SDS011;27814;53.452;-6.180;2022-07-05T05:15:36;1.95;;;1.00;;
41815;SDS011;27814;53.452;-6.180;2022-07-05T05:18:05;1.67;;;0.70;;
41815;SDS011;27814;53.452;-6.180;2022-07-05T05:20:33;3.17;;;0.82;;
41815;SDS011;27814;53.452;-6.180;2022-07-05T05:23:06;1.50;;;0.73;;
41815;SDS011;27814;53.452;-6.180;2022-07-05T05:25:35;1.92;;;0.70;;
41815;SDS011;27814;53.452;-6.180;2022-07-05T05:28:04;1.50;;;0.50;;
41815;SDS011;27814;53.452;-6.180;2022-07-05T05:30:32;1.30;;;0.50;;
41815;SDS011;27814;53.452;-6.180;2022-07-05T05:33:01;1.30;;;0.50;;
41815;SDS011;27814;53.452;-6.180;2022-07-05T05:35:29;1.50;;;0.40;;
41815;SDS011;27814;53.452;-6.180;2022-07-05T05:37:57;1.07;;;0.40;;
41815;SDS011;27814;53.452;-6.180;2022-07-05T05:40:26;1.23;;;0.38;;
41815;SDS011;27814;53.452;-6.180;2022-07-05T05:42:56;0.70;;;0.20;;
41815;SDS011;27814;53.452;-6.180;2022-07-05T05:45:25;0.30;;;0.20;;
41815;SDS011;27814;53.452;-6.180;2022-07-05T05:47:54;0.63;;;0.20;;
41815;SDS011;27814;53.452;-6.180;2022-07-05T05:50:24;1.10;;;0.30;;
41815;SDS011;27814;53.452;-6.180;2022-07-05T05:52:53;1.33;;;0.50;;
41815;SDS011;27814;53.452;-6.180;2022-07-05T05:55:23;0.73;;;0.22;;
41815;SDS011;27814;53.452;-6.180;2022-07-05T05:57:52;1.20;;;0.30;;
41815;SDS011;27814;53.452;-6.180;2022-07-05T06:00:22;0.40;;;0.20;;
41815;SDS011;27814;53.452;-6.180;2022-07-05T06:02:52;0.73;;;0.20;;
41815;SDS011;27814;53.452;-6.180;2022-07-05T06:05:20;1.00;;;0.30;;
41815;SDS011;27814;53.452;-6.180;2022-07-05T06:07:49;1.10;;;0.32;;
41815;SDS011;27814;53.452;-6.180;2022-07-05T06:10:19;0.63;;;0.20;;
41815;SDS011;27814;53.452;-6.180;2022-07-05T06:12:49;0.40;;;0.20;;
41815;SDS011;27814;53.452;-6.180;2022-07-05T06:15:19;0.40;;;0.30;;
41815;SDS011;27814;53.452;-6.180;2022-07-05T06:17:49;0.30;;;0.20;;
41815;SDS011;27814;53.452;-6.180;2022-07-05T06:20:18;0.55;;;0.30;;
41815;SDS011;27814;53.452;-6.180;2022-07-05T06:22:49;0.30;;;0.20;;
41815;SDS011;27814;53.452;-6.180;2022-07-05T06:25:18;0.20;;;0.17;;
41815;SDS011;27814;53.452;-6.180;2022-07-05T06:27:50;0.20;;;0.10;;
41815;SDS011;27814;53.452;-6.180;2022-07-05T06:30:20;0.10;;;0.10;;
41815;SDS011;27814;53.452;-6.180;2022-07-05T06:32:51;0.30;;;0.10;;
41815;SDS011;27814;53.452;-6.180;2022-07-05T06:35:21;0.90;;;0.20;;
41815;SDS011;27814;53.452;-6.180;2022-07-05T06:37:50;0.20;;;0.10;;
41815;SDS011;27814;53.452;-6.180;2022-07-05T06:40:20;0.10;;;0.10;;
41815;SDS011;27814;53.452;-6.180;2022-07-05T06:42:49;0.10;;;0.10;;
41815;SDS011;27814;53.452;-6.180;2022-07-05T06:45:18;1.00;;;0.20;;
41815;SDS011;27814;53.452;-6.180;2022-07-05T06:47:55;0.17;;;0.10;;
41815;SDS011;27814;53.452;-6.180;2022-07-05T06:50:24;0.45;;;0.10;;
41815;SDS011;27814;53.452;-6.180;2022-07-05T06:52:53;0.10;;;0.10;;
41815;SDS011;27814;53.452;-6.180;2022-07-05T06:55:22;0.13;;;0.10;;
41815;SDS011;27814;53.452;-6.180;2022-07-05T06:57:56;0.30;;;0.10;;
41815;SDS011;27814;53.452;-6.180;2022-07-05T07:00:41;0.10;;;0.10;;
41815;SDS011;27814;53.452;-6.180;2022-07-05T07:03:32;0.60;;;0.30;;
41815;SDS011;27814;53.452;-6.180;2022-07-05T07:06:21;0.47;;;0.20;;
41815;SDS011;27814;53.452;-6.180;2022-07-05T07:08:50;0.20;;;0.10;;
41815;SDS011;27814;53.452;-6.180;2022-07-05T07:11:44;0.40;;;0.20;;
41815;SDS011;27814;53.452;-6.180;2022-07-05T07:14:13;1.00;;;0.10;;
41815;SDS011;27814;53.452;-6.180;2022-07-05T07:16:41;0.32;;;0.17;;
41815;SDS011;27814;53.452;-6.180;2022-07-05T07:19:11;0.70;;;0.20;;
41815;SDS011;27814;53.452;-6.180;2022-07-05T07:21:41;0.47;;;0.10;;
41815;SDS011;27814;53.452;-6.180;2022-07-05T07:24:10;2.10;;;0.40;;
41815;SDS011;27814;53.452;-6.180;2022-07-05T07:26:41;0.50;;;0.10;;
41815;SDS011;27814;53.452;-6.180;2022-07-05T07:29:27;0.30;;;0.20;;
41815;SDS011;27814;53.452;-6.180;2022-07-05T07:31:55;0.30;;;0.20;;
41815;SDS011;27814;53.452;-6.180;2022-07-05T07:34:26;0.55;;;0.17;;
41815;SDS011;27814;53.452;-6.180;2022-07-05T07:36:56;0.20;;;0.10;;
41815;SDS011;27814;53.452;-6.180;2022-07-05T07:39:24;0.27;;;0.10;;
41815;SDS011;27814;53.452;-6.180;2022-07-05T07:41:52;0.20;;;0.17;;
41815;SDS011;27814;53.452;-6.180;2022-07-05T07:44:20;0.35;;;0.20;;
41815;SDS011;27814;53.452;-6.180;2022-07-05T07:46:49;0.70;;;0.30;;
41815;SDS011;27814;53.452;-6.180;2022-07-05T07:49:18;1.05;;;0.20;;
41815;SDS011;27814;53.452;-6.180;2022-07-05T07:51:48;0.57;;;0.20;;
41815;SDS011;27814;53.452;-6.180;2022-07-05T07:54:18;1.40;;;0.20;;
41815;SDS011;27814;53.452;-6.180;2022-07-05T07:56:46;0.10;;;0.10;;
41815;SDS011;27814;53.452;-6.180;2022-07-05T07:59:15;0.30;;;0.10;;
41815;SDS011;27814;53.452;-6.180;2022-07-05T08:01:45;0.40;;;0.13;;
41815;SDS011;27814;53.452;-6.180;2022-07-05T08:04:14;0.10;;;0.10;;
41815;SDS011;27814;53.452;-6.180;2022-07-05T08:06:43;0.77;;;0.20;;
41815;SDS011;27814;53.452;-6.180;2022-07-05T08:09:13;0.08;;;0.08;;
41815;SDS011;27814;53.452;-6.180;2022-07-05T08:11:43;0.70;;;0.10;;
41815;SDS011;27814;53.452;-6.180;2022-07-05T08:14:13;0.15;;;0.10;;
41815;SDS011;27814;53.452;-6.180;2022-07-05T08:16:41;0.40;;;0.20;;
41815;SDS011;27814;53.452;-6.180;2022-07-05T08:19:16;0.17;;;0.10;;
41815;SDS011;27814;53.452;-6.180;2022-07-05T08:22:03;0.13;;;0.10;;
41815;SDS011;27814;53.452;-6.180;2022-07-05T08:24:35;0.10;;;0.10;;
41815;SDS011;27814;53.452;-6.180;2022-07-05T08:27:06;0.80;;;0.20;;
41815;SDS011;27814;53.452;-6.180;2022-07-05T08:29:34;0.10;;;0.10;;
41815;SDS011;27814;53.452;-6.180;2022-07-05T08:32:04;1.70;;;0.20;;
41815;SDS011;27814;53.452;-6.180;2022-07-05T08:34:33;0.20;;;0.20;;
41815;SDS011;27814;53.452;-6.180;2022-07-05T08:37:02;0.10;;;0.10;;
41815;SDS011;27814;53.452;-6.180;2022-07-05T08:39:41;0.60;;;0.20;;
41815;SDS011;27814;53.452;-6.180;2022-07-05T08:42:09;0.55;;;0.10;;
41815;SDS011;27814;53.452;-6.180;2022-07-05T08:44:39;0.45;;;0.10;;
41815;SDS011;27814;53.452;-6.180;2022-07-05T08:47:10;0.10;;;0.10;;
41815;SDS011;27814;53.452;-6.180;2022-07-05T08:49:39;0.13;;;0.10;;
41815;SDS011;27814;53.452;-6.180;2022-07-05T08:52:10;0.30;;;0.20;;
41815;SDS011;27814;53.452;-6.180;2022-07-05T08:54:40;0.40;;;0.20;;
41815;SDS011;27814;53.452;-6.180;2022-07-05T08:57:09;0.30;;;0.20;;
41815;SDS011;27814;53.452;-6.180;2022-07-05T08:59:40;0.10;;;0.10;;
41815;SDS011;27814;53.452;-6.180;2022-07-05T09:02:10;1.58;;;0.20;;
41815;SDS011;27814;53.452;-6.180;2022-07-05T09:04:42;0.30;;;0.20;;
41815;SDS011;27814;53.452;-6.180;2022-07-05T09:07:14;0.10;;;0.10;;
41815;SDS011;27814;53.452;-6.180;2022-07-05T09:09:46;0.75;;;0.30;;
41815;SDS011;27814;53.452;-6.180;2022-07-05T09:12:18;0.17;;;0.15;;
41815;SDS011;27814;53.452;-6.180;2022-07-05T09:14:51;0.25;;;0.20;;
41815;SDS011;27814;53.452;-6.180;2022-07-05T09:17:19;0.10;;;0.10;;
41815;SDS011;27814;53.452;-6.180;2022-07-05T09:20:04;0.90;;;0.28;;
41815;SDS011;27814;53.452;-6.180;2022-07-05T09:22:44;0.20;;;0.20;;
41815;SDS011;27814;53.452;-6.180;2022-07-05T09:25:16;1.20;;;0.28;;
41815;SDS011;27814;53.452;-6.180;2022-07-05T09:27:50;0.30;;;0.20;;
41815;SDS011;27814;53.452;-6.180;2022-07-05T09:30:23;0.38;;;0.20;;
41815;SDS011;27814;53.452;-6.180;2022-07-05T09:33:07;0.20;;;0.20;;
41815;SDS011;27814;53.452;-6.180;2022-07-05T09:35:37;0.20;;;0.20;;
41815;SDS011;27814;53.452;-6.180;2022-07-05T09:38:19;0.40;;;0.20;;
41815;SDS011;27814;53.452;-6.180;2022-07-05T09:40:51;0.32;;;0.20;;
41815;SDS011;27814;53.452;-6.180;2022-07-05T09:43:20;0.47;;;0.20;;
41815;SDS011;27814;53.452;-6.180;2022-07-05T09:45:50;0.10;;;0.10;;
41815;SDS011;27814;53.452;-6.180;2022-07-05T09:48:20;0.30;;;0.20;;
41815;SDS011;27814;53.452;-6.180;2022-07-05T09:51:03;0.20;;;0.20;;
41815;SDS011;27814;53.452;-6.180;2022-07-05T09:53:53;0.30;;;0.20;;
41815;SDS011;27814;53.452;-6.180;2022-07-05T09:56:28;0.20;;;0.20;;
41815;SDS011;27814;53.452;-6.180;2022-07-05T09:59:13;0.30;;;0.20;;
41815;SDS011;27814;53.452;-6.180;2022-07-05T10:01:44;0.47;;;0.17;;
41815;SDS011;27814;53.452;-6.180;2022-07-05T10:04:13;0.20;;;0.20;;
41815;SDS011;27814;53.452;-6.180;2022-07-05T10:06:41;0.60;;;0.30;;
41815;SDS011;27814;53.452;-6.180;2022-07-05T10:09:10;0.45;;;0.25;;
41815;SDS011;27814;53.452;-6.180;2022-07-05T10:11:43;0.27;;;0.20;;
41815;SDS011;27814;53.452;-6.180;2022-07-05T10:14:16;0.30;;;0.30;;
41815;SDS011;27814;53.452;-6.180;2022-07-05T10:16:47;1.10;;;0.35;;
41815;SDS011;27814;53.452;-6.180;2022-07-05T10:19:20;0.60;;;0.40;;
41815;SDS011;27814;53.452;-6.180;2022-07-05T10:21:49;0.40;;;0.30;;
41815;SDS011;27814;53.452;-6.180;2022-07-05T10:24:39;0.45;;;0.38;;
41815;SDS011;27814;53.452;-6.180;2022-07-05T10:27:10;1.30;;;0.40;;
41815;SDS011;27814;53.452;-6.180;2022-07-05T10:29:40;0.20;;;0.20;;
41815;SDS011;27814;53.452;-6.180;2022-07-05T10:32:09;0.40;;;0.30;;
41815;SDS011;27814;53.452;-6.180;2022-07-05T10:34:39;0.30;;;0.30;;
41815;SDS011;27814;53.452;-6.180;2022-07-05T10:37:25;0.40;;;0.40;;
41815;SDS011;27814;53.452;-6.180;2022-07-05T10:39:56;0.90;;;0.50;;
41815;SDS011;27814;53.452;-6.180;2022-07-05T10:42:28;0.52;;;0.40;;
41815;SDS011;27814;53.452;-6.180;2022-07-05T10:45:00;0.22;;;0.22;;
41815;SDS011;27814;53.452;-6.180;2022-07-05T10:47:29;0.38;;;0.38;;
41815;SDS011;27814;53.452;-6.180;2022-07-05T10:49:59;0.40;;;0.30;;
41815;SDS011;27814;53.452;-6.180;2022-07-05T10:52:29;1.00;;;0.47;;
41815;SDS011;27814;53.452;-6.180;2022-07-05T11:07:00;1.50;;;0.60;;
41815;SDS011;27814;53.452;-6.180;2022-07-05T11:09:29;2.15;;;0.43;;
41815;SDS011;27814;53.452;-6.180;2022-07-05T11:12:04;2.60;;;0.68;;
41815;SDS011;27814;53.452;-6.180;2022-07-05T11:14:56;0.75;;;0.40;;
41815;SDS011;27814;53.452;-6.180;2022-07-05T11:17:35;0.57;;;0.32;;
41815;SDS011;27814;53.452;-6.180;2022-07-05T11:20:30;0.67;;;0.40;;
41815;SDS011;27814;53.452;-6.180;2022-07-05T11:23:09;1.00;;;0.30;;
41815;SDS011;27814;53.452;-6.180;2022-07-05T11:25:39;0.50;;;0.30;;
41815;SDS011;27814;53.452;-6.180;2022-07-05T11:28:12;0.90;;;0.32;;
41815;SDS011;27814;53.452;-6.180;2022-07-05T11:30:56;1.92;;;0.50;;
41815;SDS011;27814;53.452;-6.180;2022-07-05T11:33:32;1.65;;;0.52;;
41815;SDS011;27814;53.452;-6.180;2022-07-05T11:36:05;0.50;;;0.47;;
41815;SDS011;27814;53.452;-6.180;2022-07-05T11:41:40;0.40;;;0.30;;
41815;SDS011;27814;53.452;-6.180;2022-07-05T11:44:10;0.68;;;0.30;;
41815;SDS011;27814;53.452;-6.180;2022-07-05T11:46:41;0.47;;;0.32;;
41815;SDS011;27814;53.452;-6.180;2022-07-05T11:49:18;0.90;;;0.33;;
41815;SDS011;27814;53.452;-6.180;2022-07-05T11:51:54;0.80;;;0.40;;
41815;SDS011;27814;53.452;-6.180;2022-07-05T11:54:24;0.98;;;0.50;;
41815;SDS011;27814;53.452;-6.180;2022-07-05T11:56:53;2.00;;;0.50;;
41815;SDS011;27814;53.452;-6.180;2022-07-05T11:59:23;0.67;;;0.50;;
41815;SDS011;27814;53.452;-6.180;2022-07-05T12:01:54;0.57;;;0.40;;
41815;SDS011;27814;53.452;-6.180;2022-07-05T12:04:23;2.22;;;0.40;;
41815;SDS011;27814;53.452;-6.180;2022-07-05T12:06:53;0.80;;;0.40;;
41815;SDS011;27814;53.452;-6.180;2022-07-05T12:09:23;1.00;;;0.40;;
41815;SDS011;27814;53.452;-6.180;2022-07-05T12:11:53;1.02;;;0.40;;
41815;SDS011;27814;53.452;-6.180;2022-07-05T12:14:46;0.40;;;0.35;;
41815;SDS011;27814;53.452;-6.180;2022-07-05T12:17:17;0.52;;;0.40;;
41815;SDS011;27814;53.452;-6.180;2022-07-05T12:19:53;0.50;;;0.40;;
41815;SDS011;27814;53.452;-6.180;2022-07-05T12:22:28;2.15;;;0.70;;
41815;SDS011;27814;53.452;-6.180;2022-07-05T12:24:58;0.60;;;0.50;;
41815;SDS011;27814;53.452;-6.180;2022-07-05T12:27:28;1.15;;;0.50;;
41815;SDS011;27814;53.452;-6.180;2022-07-05T12:29:58;0.70;;;0.30;;
41815;SDS011;27814;53.452;-6.180;2022-07-05T12:32:30;1.95;;;0.50;;
41815;SDS011;27814;53.452;-6.180;2022-07-05T12:34:59;0.40;;;0.40;;
41815;SDS011;27814;53.452;-6.180;2022-07-05T12:37:32;0.70;;;0.50;;
41815;SDS011;27814;53.452;-6.180;2022-07-05T12:40:02;1.42;;;0.60;;
41815;SDS011;27814;53.452;-6.180;2022-07-05T12:42:33;0.73;;;0.68;;
41815;SDS011;27814;53.452;-6.180;2022-07-05T12:45:06;1.02;;;0.70;;
41815;SDS011;27814;53.452;-6.180;2022-07-05T12:47:48;1.65;;;0.73;;
41815;SDS011;27814;53.452;-6.180;2022-07-05T12:50:20;1.45;;;0.80;;
41815;SDS011;27814;53.452;-6.180;2022-07-05T12:52:54;0.97;;;0.70;;
41815;SDS011;27814;53.452;-6.180;2022-07-05T12:55:33;0.73;;;0.60;;
41815;SDS011;27814;53.452;-6.180;2022-07-05T12:58:20;0.50;;;0.50;;
41815;SDS011;27814;53.452;-6.180;2022-07-05T13:00:48;1.42;;;0.90;;
41815;SDS011;27814;53.452;-6.180;2022-07-05T13:03:18;1.15;;;0.70;;
41815;SDS011;27814;53.452;-6.180;2022-07-05T13:05:59;1.95;;;0.43;;
41815;SDS011;27814;53.452;-6.180;2022-07-05T13:08:29;0.60;;;0.50;;
41815;SDS011;27814;53.452;-6.180;2022-07-05T13:10:58;0.80;;;0.50;;
41815;SDS011;27814;53.452;-6.180;2022-07-05T13:13:26;0.55;;;0.55;;
41815;SDS011;27814;53.452;-6.180;2022-07-05T13:15:55;0.95;;;0.60;;
41815;SDS011;27814;53.452;-6.180;2022-07-05T13:18:31;0.60;;;0.40;;
41815;SDS011;27814;53.452;-6.180;2022-07-05T13:20:59;0.57;;;0.47;;
41815;SDS011;27814;53.452;-6.180;2022-07-05T13:23:28;1.13;;;0.40;;
41815;SDS011;27814;53.452;-6.180;2022-07-05T13:25:57;1.88;;;0.43;;
41815;SDS011;27814;53.452;-6.180;2022-07-05T13:28:25;2.42;;;0.40;;
41815;SDS011;27814;53.452;-6.180;2022-07-05T13:30:53;0.43;;;0.40;;
41815;SDS011;27814;53.452;-6.180;2022-07-05T13:33:22;0.43;;;0.43;;
41815;SDS011;27814;53.452;-6.180;2022-07-05T13:35:56;0.70;;;0.50;;
41815;SDS011;27814;53.452;-6.180;2022-07-05T13:38:25;1.80;;;0.60;;
41815;SDS011;27814;53.452;-6.180;2022-07-05T13:40:53;1.05;;;0.60;;
41815;SDS011;27814;53.452;-6.180;2022-07-05T13:43:22;0.87;;;0.40;;
41815;SDS011;27814;53.452;-6.180;2022-07-05T13:45:50;0.52;;;0.50;;
41815;SDS011;27814;53.452;-6.180;2022-07-05T13:48:21;0.98;;;0.60;;
41815;SDS011;27814;53.452;-6.180;2022-07-05T13:50:49;1.07;;;0.50;;
41815;SDS011;27814;53.452;-6.180;2022-07-05T13:53:20;1.60;;;0.50;;
41815;SDS011;27814;53.452;-6.180;2022-07-05T13:55:48;0.50;;;0.32;;
41815;SDS011;27814;53.452;-6.180;2022-07-05T13:58:17;0.70;;;0.50;;
41815;SDS011;27814;53.452;-6.180;2022-07-05T14:00:45;0.70;;;0.50;;
41815;SDS011;27814;53.452;-6.180;2022-07-05T14:03:13;0.90;;;0.50;;
41815;SDS011;27814;53.452;-6.180;2022-07-05T14:05:42;0.70;;;0.50;;
41815;SDS011;27814;53.452;-6.180;2022-07-05T14:08:11;0.90;;;0.65;;
41815;SDS011;27814;53.452;-6.180;2022-07-05T14:10:41;1.05;;;0.40;;
41815;SDS011;27814;53.452;-6.180;2022-07-05T14:13:09;0.50;;;0.40;;
41815;SDS011;27814;53.452;-6.180;2022-07-05T14:15:39;0.65;;;0.50;;
41815;SDS011;27814;53.452;-6.180;2022-07-05T14:18:07;1.20;;;0.60;;
41815;SDS011;27814;53.452;-6.180;2022-07-05T14:20:36;0.50;;;0.50;;
41815;SDS011;27814;53.452;-6.180;2022-07-05T14:23:04;0.50;;;0.50;;
41815;SDS011;27814;53.452;-6.180;2022-07-05T14:25:33;0.80;;;0.60;;
41815;SDS011;27814;53.452;-6.180;2022-07-05T14:28:03;0.73;;;0.50;;
41815;SDS011;27814;53.452;-6.180;2022-07-05T14:30:33;1.03;;;0.50;;
41815;SDS011;27814;53.452;-6.180;2022-07-05T14:33:02;2.78;;;0.60;;
41815;SDS011;27814;53.452;-6.180;2022-07-05T14:35:31;0.82;;;0.60;;
41815;SDS011;27814;53.452;-6.180;2022-07-05T14:38:00;0.63;;;0.50;;
41815;SDS011;27814;53.452;-6.180;2022-07-05T14:40:29;0.88;;;0.63;;
41815;SDS011;27814;53.452;-6.180;2022-07-05T14:42:58;1.27;;;0.60;;
41815;SDS011;27814;53.452;-6.180;2022-07-05T14:45:29;1.42;;;0.73;;
41815;SDS011;27814;53.452;-6.180;2022-07-05T14:47:58;1.30;;;0.80;;
41815;SDS011;27814;53.452;-6.180;2022-07-05T14:50:26;0.77;;;0.63;;
41815;SDS011;27814;53.452;-6.180;2022-07-05T14:52:54;2.08;;;0.70;;
41815;SDS011;27814;53.452;-6.180;2022-07-05T14:55:23;0.85;;;0.70;;
41815;SDS011;27814;53.452;-6.180;2022-07-05T14:57:51;0.90;;;0.50;;
41815;SDS011;27814;53.452;-6.180;2022-07-05T15:00:20;1.20;;;0.57;;
41815;SDS011;27814;53.452;-6.180;2022-07-05T15:02:50;1.40;;;0.80;;
41815;SDS011;27814;53.452;-6.180;2022-07-05T15:05:25;1.13;;;0.80;;
41815;SDS011;27814;53.452;-6.180;2022-07-05T15:07:53;1.33;;;0.75;;
41815;SDS011;27814;53.452;-6.180;2022-07-05T15:10:21;0.90;;;0.70;;